createdAt,value
2022-07-29T00:02:25.748Z,64.69
2022-07-29T00:04:52.351Z,64.82
2022-07-29T00:07:19.029Z,64.95
2022-07-29T00:09:51.097Z,64.72
2022-07-29T00:12:26.214Z,65.21
2022-07-29T00:14:57.586Z,65.34
2022-07-29T00:17:25.133Z,65.26
2022-07-29T00:19:52.447Z,65.80
2022-07-29T00:22:20.302Z,65.81
2022-07-29T00:24:50.752Z,65.98
2022-07-29T00:27:18.610Z,65.96
2022-07-29T00:29:45.936Z,66.13
2022-07-29T00:32:13.195Z,66.31
2022-07-29T00:34:59.038Z,66.34
2022-07-29T00:37:25.673Z,66.47
2022-07-29T00:39:52.213Z,66.56
2022-07-29T00:42:18.789Z,66.55
2022-07-29T00:44:45.633Z,66.64
2022-07-29T00:47:12.740Z,66.95
2022-07-29T00:49:41.317Z,66.83
2022-07-29T00:52:10.056Z,66.94
2022-07-29T00:54:44.267Z,67.35
2022-07-29T00:57:12.685Z,67.26
2022-07-29T00:59:39.251Z,67.33
2022-07-29T01:02:06.135Z,67.37
2022-07-29T01:04:33.039Z,67.56
2022-07-29T01:07:02.876Z,67.71
2022-07-29T01:09:43.199Z,67.65
2022-07-29T01:12:19.812Z,67.74
2022-07-29T01:14:48.055Z,67.99
2022-07-29T01:17:21.076Z,68.06
2022-07-29T01:19:59.530Z,68.11
2022-07-29T01:22:40.282Z,67.93
2022-07-29T01:25:25.060Z,68.07
2022-07-29T01:28:10.172Z,67.74
2022-07-29T01:30:40.752Z,67.96
2022-07-29T01:33:34.163Z,68.10
2022-07-29T01:36:06.114Z,68.47
2022-07-29T01:38:32.829Z,67.68
2022-07-29T01:41:13.556Z,68.06
2022-07-29T01:43:58.570Z,68.15
2022-07-29T01:46:34.445Z,68.22
2022-07-29T01:49:09.003Z,68.56
2022-07-29T01:51:50.424Z,68.52
2022-07-29T01:54:22.031Z,68.95
2022-07-29T01:56:52.040Z,68.93
2022-07-29T01:59:21.249Z,69.01
2022-07-29T02:01:50.647Z,69.14
2022-07-29T02:04:29.169Z,69.01
2022-07-29T02:07:08.268Z,68.93
2022-07-29T02:09:37.657Z,69.25
2022-07-29T02:12:05.738Z,69.25
2022-07-29T02:14:37.284Z,69.37
2022-07-29T02:17:04.049Z,69.38
2022-07-29T02:19:33.327Z,69.31
2022-07-29T02:22:01.611Z,69.49
2022-07-29T02:24:29.482Z,69.68
2022-07-29T02:26:57.564Z,69.76
2022-07-29T02:29:26.994Z,69.44
2022-07-29T02:31:54.703Z,69.68
2022-07-29T02:34:22.663Z,69.60
2022-07-29T02:36:51.065Z,69.72
2022-07-29T02:39:19.219Z,69.73
2022-07-29T02:42:02.085Z,69.66
2022-07-29T02:44:34.258Z,69.90
2022-07-29T02:47:31.304Z,69.28
2022-07-29T02:50:14.373Z,69.87
2022-07-29T02:52:45.344Z,69.96
2022-07-29T02:55:30.939Z,69.63
2022-07-29T02:58:09.386Z,69.71
2022-07-29T03:00:38.556Z,70.33
2022-07-29T03:03:10.697Z,69.88
2022-07-29T03:05:38.136Z,70.19
2022-07-29T03:08:07.963Z,70.20
2022-07-29T03:10:35.624Z,70.19
2022-07-29T03:13:02.741Z,70.11
2022-07-29T03:15:30.235Z,70.14
2022-07-29T03:17:57.493Z,70.58
2022-07-29T03:20:24.535Z,70.33
2022-07-29T03:22:51.267Z,70.24
2022-07-29T03:25:19.976Z,70.37
2022-07-29T03:27:47.562Z,70.50
2022-07-29T03:30:21.902Z,70.65
2022-07-29T03:32:52.022Z,70.61
2022-07-29T03:35:20.475Z,70.80
2022-07-29T03:37:47.457Z,70.68
2022-07-29T03:40:22.761Z,70.68
2022-07-29T03:42:52.529Z,70.68
2022-07-29T03:45:20.551Z,70.60
2022-07-29T03:47:54.709Z,70.29
2022-07-29T03:50:23.851Z,70.64
2022-07-29T03:52:50.602Z,70.84
2022-07-29T03:55:17.758Z,70.71
2022-07-29T03:57:47.136Z,70.44
2022-07-29T04:00:16.331Z,70.77
2022-07-29T04:02:47.850Z,70.79
2022-07-29T04:05:15.852Z,70.63
2022-07-29T04:07:51.227Z,70.70
2022-07-29T04:10:30.134Z,70.71
2022-07-29T04:12:58.981Z,70.77
2022-07-29T04:15:25.606Z,71.10
2022-07-29T04:17:52.199Z,71.13
2022-07-29T04:20:19.433Z,71.10
2022-07-29T04:22:45.886Z,70.76
2022-07-29T04:25:12.316Z,70.91
2022-07-29T04:27:58.736Z,71.55
2022-07-29T04:30:25.230Z,71.25
2022-07-29T04:32:51.836Z,71.01
2022-07-29T04:35:18.920Z,70.85
2022-07-29T04:37:45.400Z,71.15
2022-07-29T04:40:12.783Z,71.06
2022-07-29T04:42:46.536Z,70.63
2022-07-29T04:45:14.889Z,71.07
2022-07-29T04:47:42.705Z,70.85
2022-07-29T04:50:10.015Z,70.92
2022-07-29T04:52:36.686Z,70.90
2022-07-29T04:55:04.482Z,70.93
2022-07-29T04:57:31.185Z,71.02
2022-07-29T04:59:57.751Z,71.04
2022-07-29T05:02:24.423Z,70.97
2022-07-29T05:04:51.036Z,70.88
2022-07-29T05:07:17.793Z,71.09
2022-07-29T05:09:44.208Z,71.22
2022-07-29T05:12:10.794Z,71.18
2022-07-29T05:14:37.242Z,71.71
2022-07-29T05:17:03.799Z,71.63
2022-07-29T05:19:30.259Z,71.17
2022-07-29T05:21:56.760Z,71.46
2022-07-29T05:24:23.272Z,71.83
2022-07-29T05:26:49.783Z,71.15
2022-07-29T05:29:44.413Z,71.51
2022-07-29T05:32:03.308Z,71.37
2022-07-29T05:34:29.836Z,70.67
2022-07-29T05:36:56.470Z,70.74
2022-07-29T05:39:48.202Z,70.55
2022-07-29T05:42:11.097Z,69.89
2022-07-29T05:44:38.979Z,70.05
2022-07-29T05:47:05.783Z,69.54
2022-07-29T05:49:32.291Z,68.43
2022-07-29T05:51:59.207Z,69.15
2022-07-29T05:54:26.619Z,68.78
2022-07-29T05:56:53.155Z,68.86
2022-07-29T05:59:19.616Z,68.14
2022-07-29T06:01:46.148Z,65.48
2022-07-29T06:04:12.802Z,61.39
2022-07-29T06:06:39.556Z,59.06
2022-07-29T06:09:12.289Z,58.88
2022-07-29T06:11:39.197Z,58.80
2022-07-29T06:14:05.759Z,59.21
2022-07-29T06:16:32.284Z,59.46
2022-07-29T06:18:58.791Z,58.94
2022-07-29T06:21:25.328Z,59.34
2022-07-29T06:23:51.793Z,59.88
2022-07-29T06:26:18.217Z,60.82
2022-07-29T06:28:44.681Z,61.09
2022-07-29T06:31:11.257Z,61.81
2022-07-29T06:33:37.793Z,61.64
2022-07-29T06:36:06.446Z,62.88
2022-07-29T06:38:42.031Z,62.76
2022-07-29T06:41:13.428Z,62.98
2022-07-29T06:43:50.240Z,62.26
2022-07-29T06:46:20.599Z,61.08
2022-07-29T06:48:48.377Z,61.08
2022-07-29T06:51:15.424Z,59.91
2022-07-29T06:54:00.514Z,59.25
2022-07-29T06:56:38.529Z,59.29
2022-07-29T06:59:07.377Z,58.14
2022-07-29T07:01:34.009Z,58.47
2022-07-29T07:04:00.617Z,58.17
2022-07-29T07:06:27.134Z,58.34
2022-07-29T07:08:53.669Z,57.38
2022-07-29T07:11:20.428Z,57.57
2022-07-29T07:13:47.048Z,55.84
2022-07-29T07:16:13.625Z,54.79
2022-07-29T07:18:40.137Z,54.52
2022-07-29T07:21:06.706Z,54.56
2022-07-29T07:23:33.206Z,53.32
2022-07-29T07:26:00.081Z,53.14
2022-07-29T07:28:26.638Z,53.75
2022-07-29T07:30:53.178Z,52.79
2022-07-29T07:33:20.355Z,52.26
2022-07-29T07:35:47.357Z,51.70
2022-07-29T07:38:14.224Z,51.80
2022-07-29T07:40:41.257Z,52.15
2022-07-29T07:43:07.727Z,51.51
2022-07-29T07:45:34.585Z,50.22
2022-07-29T07:48:01.101Z,50.97
2022-07-29T07:50:28.077Z,51.43
2022-07-29T07:52:58.731Z,50.32
2022-07-29T07:55:26.445Z,50.76
2022-07-29T07:57:53.007Z,50.64
2022-07-29T08:00:19.855Z,50.53
2022-07-29T08:02:49.612Z,50.53
2022-07-29T08:05:19.495Z,50.29
2022-07-29T08:07:47.471Z,51.00
2022-07-29T08:10:16.070Z,51.63
2022-07-29T08:12:44.298Z,51.42
2022-07-29T08:15:10.818Z,50.93
2022-07-29T08:17:37.348Z,50.96
2022-07-29T08:20:04.283Z,51.25
2022-07-29T08:22:30.794Z,50.95
2022-07-29T08:24:57.371Z,50.60
2022-07-29T08:27:42.997Z,51.38
2022-07-29T08:30:11.094Z,50.53
2022-07-29T08:32:53.012Z,49.84
2022-07-29T08:35:21.020Z,49.04
2022-07-29T08:37:48.528Z,49.40
2022-07-29T08:40:15.404Z,49.34
2022-07-29T08:42:42.603Z,49.41
2022-07-29T08:45:09.600Z,49.73
2022-07-29T08:47:40.544Z,49.32
2022-07-29T08:50:08.840Z,49.21
2022-07-29T08:52:38.363Z,47.68
2022-07-29T08:55:06.722Z,46.91
2022-07-29T08:57:34.777Z,46.53
2022-07-29T09:00:11.580Z,46.18
2022-07-29T09:02:46.793Z,45.34
2022-07-29T09:05:15.078Z,44.69
2022-07-29T09:07:44.075Z,45.58
2022-07-29T09:10:11.108Z,44.70
2022-07-29T09:12:38.331Z,44.37
2022-07-29T09:15:05.814Z,43.88
2022-07-29T09:17:50.398Z,44.00
2022-07-29T09:20:20.163Z,42.06
2022-07-29T09:22:54.343Z,41.60
2022-07-29T09:25:34.562Z,40.99
2022-07-29T09:28:15.381Z,42.00
2022-07-29T09:30:55.719Z,41.31
2022-07-29T09:33:23.467Z,40.85
2022-07-29T09:36:07.313Z,40.75
2022-07-29T09:38:35.091Z,40.39
2022-07-29T09:41:06.238Z,40.01
2022-07-29T09:43:33.951Z,39.33
2022-07-29T09:46:18.740Z,39.68
2022-07-29T09:48:45.274Z,38.71
2022-07-29T09:51:26.947Z,37.99
2022-07-29T09:54:27.243Z,39.18
2022-07-29T09:56:54.689Z,39.35
2022-07-29T09:59:23.253Z,39.59
2022-07-29T10:01:51.008Z,39.28
2022-07-29T10:04:18.519Z,39.28
2022-07-29T10:07:05.087Z,38.66
2022-07-29T10:09:33.295Z,38.88
2022-07-29T10:12:15.353Z,39.52
2022-07-29T10:14:42.771Z,40.25
2022-07-29T10:17:11.233Z,40.41
2022-07-29T10:19:39.156Z,39.37
2022-07-29T10:22:09.138Z,39.78
2022-07-29T10:24:36.423Z,39.15
2022-07-29T10:27:05.090Z,40.19
2022-07-29T10:29:35.102Z,39.95
2022-07-29T10:32:35.860Z,39.11
2022-07-29T10:35:35.756Z,39.03
2022-07-29T10:38:35.933Z,38.80
2022-07-29T10:41:36.415Z,37.61
2022-07-29T10:44:23.022Z,38.27
2022-07-29T10:46:51.563Z,37.96
2022-07-29T10:49:25.571Z,39.00
2022-07-29T10:51:54.269Z,37.92
2022-07-29T10:54:36.187Z,38.23
2022-07-29T10:57:21.238Z,36.51
2022-07-29T11:00:11.927Z,36.56
2022-07-29T11:02:45.347Z,37.48
2022-07-29T11:05:14.924Z,38.09
2022-07-29T11:08:20.402Z,38.22
2022-07-29T11:10:49.012Z,38.43
2022-07-29T11:13:47.280Z,38.59
2022-07-29T11:16:16.703Z,37.95
2022-07-29T11:19:11.290Z,38.65
2022-07-29T11:21:53.521Z,38.50
2022-07-29T11:24:30.163Z,39.23
2022-07-29T11:27:18.009Z,38.83
2022-07-29T11:29:55.548Z,39.20
2022-07-29T11:32:24.812Z,39.61
2022-07-29T11:35:17.484Z,39.84
2022-07-29T11:37:52.780Z,39.00
2022-07-29T11:40:22.843Z,39.40
2022-07-29T11:42:51.914Z,38.61
2022-07-29T11:48:29.340Z,37.53
2022-07-29T11:50:59.020Z,36.85
2022-07-29T11:53:25.799Z,36.80
2022-07-29T11:55:58.253Z,36.94
2022-07-29T11:58:25.909Z,37.38
2022-07-29T12:00:53.319Z,36.77
2022-07-29T12:03:34.960Z,36.92
2022-07-29T12:06:18.179Z,36.58
2022-07-29T12:07:02.021Z,38.48
2022-07-29T12:08:45.860Z,36.32
2022-07-29T12:11:21.615Z,37.04
2022-07-29T12:13:49.995Z,35.74
2022-07-29T12:16:27.970Z,36.48
2022-07-29T12:19:05.787Z,37.29
2022-07-29T12:22:07.499Z,37.16
2022-07-29T12:25:30.309Z,37.27
2022-07-29T12:28:14.076Z,37.35
2022-07-29T12:31:00.390Z,37.46
2022-07-29T12:33:29.804Z,37.60
2022-07-29T12:36:17.157Z,37.83
2022-07-29T12:38:47.674Z,37.94
2022-07-29T12:41:14.191Z,37.55
2022-07-29T12:43:53.080Z,38.02
2022-07-29T12:46:19.592Z,37.82
2022-07-29T12:48:46.225Z,38.02
2022-07-29T12:51:15.133Z,37.66
2022-07-29T12:53:41.685Z,37.62
2022-07-29T12:59:30.588Z,38.47
2022-07-29T13:01:57.490Z,37.53
2022-07-29T13:04:28.884Z,38.04
2022-07-29T13:07:10.376Z,38.54
2022-07-29T13:09:46.400Z,38.38
2022-07-29T13:12:14.612Z,38.21
2022-07-29T13:14:47.904Z,38.21
2022-07-29T13:17:14.329Z,38.69
2022-07-29T13:19:44.560Z,38.55
2022-07-29T13:22:13.227Z,38.49
2022-07-29T13:24:55.913Z,39.02
2022-07-29T13:27:26.025Z,38.41
2022-07-29T13:29:53.396Z,39.22
2022-07-29T13:32:28.527Z,39.67
2022-07-29T13:34:57.924Z,39.59
2022-07-29T13:37:24.796Z,39.67
2022-07-29T13:39:53.187Z,40.29
2022-07-29T13:42:19.904Z,40.78
2022-07-29T13:44:46.515Z,40.26
2022-07-29T13:47:17.065Z,40.49
2022-07-29T13:49:43.566Z,40.87
2022-07-29T13:52:10.013Z,40.52
2022-07-29T13:54:41.933Z,41.27
2022-07-29T13:57:11.685Z,40.45
2022-07-29T13:59:39.171Z,41.31
2022-07-29T14:02:06.451Z,40.72
2022-07-29T14:04:34.323Z,41.49
2022-07-29T14:07:03.662Z,41.23
2022-07-29T14:09:30.920Z,41.35
2022-07-29T14:12:08.097Z,41.16
2022-07-29T14:14:36.439Z,41.30
2022-07-29T14:17:04.177Z,41.74
2022-07-29T14:19:32.828Z,42.04
2022-07-29T14:21:59.695Z,41.62
2022-07-29T14:24:26.396Z,42.13
2022-07-29T14:26:52.908Z,42.50
2022-07-29T14:29:20.686Z,41.59
2022-07-29T14:31:47.203Z,42.02
2022-07-29T14:34:13.747Z,42.06
2022-07-29T14:36:40.194Z,43.07
2022-07-29T14:39:06.665Z,40.57
2022-07-29T14:41:33.715Z,40.42
2022-07-29T14:44:02.838Z,40.56
2022-07-29T14:46:29.378Z,40.60
2022-07-29T14:48:56.071Z,40.06
2022-07-29T14:51:22.564Z,40.81
2022-07-29T14:53:49.298Z,40.79
2022-07-29T14:56:36.151Z,40.52
2022-07-29T14:59:02.659Z,41.23
2022-07-29T15:01:29.986Z,40.09
2022-07-29T15:03:59.659Z,40.48
2022-07-29T15:06:27.295Z,40.20
2022-07-29T15:08:54.751Z,40.44
2022-07-29T15:11:21.445Z,41.25
2022-07-29T15:13:47.905Z,40.60
2022-07-29T15:16:14.414Z,40.34
2022-07-29T15:18:41.154Z,40.78
2022-07-29T15:21:08.330Z,39.93
2022-07-29T15:23:38.496Z,40.85
2022-07-29T15:26:07.973Z,40.72
2022-07-29T15:28:36.667Z,41.16
2022-07-29T15:31:03.204Z,40.97
2022-07-29T15:33:29.660Z,41.38
2022-07-29T15:35:57.529Z,41.02
2022-07-29T15:38:28.895Z,41.42
2022-07-29T15:40:55.807Z,40.78
2022-07-29T15:43:22.681Z,40.79
2022-07-29T15:46:08.257Z,40.07
2022-07-29T15:48:38.858Z,40.43
2022-07-29T15:51:05.425Z,40.48
2022-07-29T15:53:31.947Z,41.45
2022-07-29T15:56:02.043Z,40.31
2022-07-29T15:58:30.183Z,40.91
2022-07-29T16:01:00.623Z,40.13
2022-07-29T16:03:27.102Z,41.28
2022-07-29T16:05:53.576Z,40.20
2022-07-29T16:08:27.735Z,40.77
2022-07-29T16:10:56.376Z,41.50
2022-07-29T16:13:22.896Z,41.19
2022-07-29T16:16:06.610Z,39.84
2022-07-29T16:18:33.125Z,40.28
2022-07-29T16:20:59.660Z,39.51
2022-07-29T16:23:26.357Z,40.01
2022-07-29T16:26:01.208Z,40.40
2022-07-29T16:28:29.062Z,39.60
2022-07-29T16:30:55.740Z,39.58
2022-07-29T16:33:22.281Z,39.77
2022-07-29T16:35:48.929Z,40.33
2022-07-29T16:38:15.784Z,40.52
2022-07-29T16:40:42.583Z,41.20
2022-07-29T16:43:09.185Z,40.79
2022-07-29T16:45:42.592Z,41.43
2022-07-29T16:48:13.925Z,40.46
2022-07-29T16:50:40.863Z,40.23
2022-07-29T16:53:10.226Z,41.24
2022-07-29T16:55:36.749Z,41.51
2022-07-29T16:58:03.227Z,41.70
2022-07-29T17:00:29.851Z,41.74
2022-07-29T17:02:56.364Z,41.57
2022-07-29T17:05:25.718Z,42.21
2022-07-29T17:07:54.194Z,42.11
2022-07-29T17:10:23.469Z,42.23
2022-07-29T17:12:50.204Z,42.11
2022-07-29T17:15:20.170Z,42.28
2022-07-29T17:17:56.386Z,42.65
2022-07-29T17:20:23.614Z,42.57
2022-07-29T17:22:50.429Z,42.84
2022-07-29T17:25:20.276Z,43.05
2022-07-29T17:27:47.397Z,43.04
2022-07-29T17:30:13.946Z,42.94
2022-07-29T17:32:40.379Z,42.80
2022-07-29T17:35:26.279Z,42.82
2022-07-29T17:37:53.033Z,43.11
2022-07-29T17:40:19.840Z,43.59
2022-07-29T17:42:48.701Z,43.45
2022-07-29T17:45:15.327Z,43.52
2022-07-29T17:47:41.866Z,44.62
2022-07-29T17:50:08.784Z,44.77
2022-07-29T17:52:35.293Z,44.44
2022-07-29T17:55:02.590Z,44.63
2022-07-29T17:57:29.227Z,44.65
2022-07-29T17:59:55.759Z,45.27
2022-07-29T18:02:22.278Z,45.31
2022-07-29T18:04:57.128Z,45.64
2022-07-29T18:07:24.228Z,46.17
2022-07-29T18:09:50.772Z,46.08
2022-07-29T18:12:17.232Z,46.24
2022-07-29T18:14:43.720Z,46.71
2022-07-29T18:17:10.420Z,46.50
2022-07-29T18:19:36.978Z,46.79
2022-07-29T18:22:04.753Z,47.11
2022-07-29T18:24:32.588Z,47.67
2022-07-29T18:26:59.338Z,48.14
2022-07-29T18:29:28.774Z,48.30
2022-07-29T18:31:55.452Z,48.72
2022-07-29T18:34:21.963Z,49.38
2022-07-29T18:36:48.417Z,49.60
2022-07-29T18:39:20.788Z,49.75
2022-07-29T18:41:50.439Z,50.31
2022-07-29T18:44:19.344Z,50.19
2022-07-29T18:46:48.789Z,50.85
2022-07-29T18:49:15.366Z,51.29
2022-07-29T18:51:41.976Z,51.43
2022-07-29T18:54:10.012Z,51.91
2022-07-29T18:56:37.225Z,52.44
2022-07-29T18:59:06.550Z,52.66
2022-07-29T19:01:33.207Z,53.12
2022-07-29T19:04:00.517Z,53.11
2022-07-29T19:06:27.068Z,53.88
2022-07-29T19:08:54.663Z,54.17
2022-07-29T19:11:21.244Z,53.16
2022-07-29T19:13:47.778Z,53.45
2022-07-29T19:16:14.609Z,53.24
2022-07-29T19:18:41.638Z,53.48
2022-07-29T19:21:08.309Z,53.57
2022-07-29T19:24:01.458Z,53.70
2022-07-29T19:26:24.239Z,53.63
2022-07-29T19:28:53.092Z,54.07
2022-07-29T19:31:22.045Z,54.42
2022-07-29T19:33:51.607Z,54.75
2022-07-29T19:36:18.073Z,55.28
2022-07-29T19:38:44.563Z,55.67
2022-07-29T19:41:13.952Z,56.12
2022-07-29T19:43:51.958Z,57.52
2022-07-29T19:46:21.084Z,57.46
2022-07-29T19:48:50.858Z,58.28
2022-07-29T19:51:17.436Z,58.81
2022-07-29T19:53:44.677Z,59.54
2022-07-29T19:56:11.347Z,60.03
2022-07-29T19:58:39.158Z,60.51
2022-07-29T20:01:10.233Z,61.48
2022-07-29T20:03:44.793Z,61.65
2022-07-29T20:06:11.273Z,62.42
2022-07-29T20:08:40.833Z,62.47
2022-07-29T20:11:07.342Z,63.40
2022-07-29T20:13:35.249Z,63.61
2022-07-29T20:16:02.650Z,64.57
2022-07-29T20:18:29.858Z,64.98
2022-07-29T20:20:57.437Z,64.85
2022-07-29T20:23:26.953Z,65.67
2022-07-29T20:25:54.026Z,65.95
2022-07-29T20:28:23.924Z,65.70
2022-07-29T20:30:50.687Z,66.96
2022-07-29T20:33:17.475Z,67.28
2022-07-29T20:35:47.288Z,68.42
2022-07-29T20:38:18.053Z,68.45
2022-07-29T20:40:45.347Z,68.84
2022-07-29T20:43:11.862Z,69.58
2022-07-29T20:45:40.596Z,69.55
2022-07-29T20:48:08.370Z,70.17
2022-07-29T20:50:40.881Z,70.67
2022-07-29T20:53:07.357Z,71.41
2022-07-29T20:55:33.994Z,71.67
2022-07-29T20:58:00.509Z,72.17
2022-07-29T21:00:27.288Z,72.90
2022-07-29T21:02:54.452Z,73.05
2022-07-29T21:05:21.566Z,74.12
2022-07-29T21:07:48.181Z,74.17
2022-07-29T21:10:18.510Z,74.87
2022-07-29T21:12:48.374Z,75.46
2022-07-29T21:15:20.629Z,76.00
2022-07-29T21:17:48.137Z,75.82
2022-07-29T21:20:17.309Z,75.99
2022-07-29T21:22:45.004Z,76.65
2022-07-29T21:25:12.009Z,78.16
2022-07-29T21:27:57.244Z,77.78
2022-07-29T21:30:23.943Z,78.04
2022-07-29T21:32:50.737Z,78.86
2022-07-29T21:36:01.797Z,78.89
2022-07-29T21:38:05.960Z,79.61
2022-07-29T21:40:32.481Z,80.12
2022-07-29T21:42:59.026Z,80.30
2022-07-29T21:45:26.022Z,80.18
2022-07-29T21:47:52.705Z,80.40
2022-07-29T21:50:19.344Z,80.69
2022-07-29T21:52:45.836Z,81.42
2022-07-29T21:55:13.605Z,81.18
2022-07-29T21:57:40.688Z,81.20
2022-07-29T22:00:10.521Z,81.52
2022-07-29T22:02:39.905Z,81.47
2022-07-29T22:05:06.629Z,81.81
2022-07-29T22:07:54.183Z,81.14
2022-07-29T22:10:19.756Z,82.41
2022-07-29T22:12:46.401Z,82.06
2022-07-29T22:15:13.250Z,82.45
2022-07-29T22:17:40.813Z,83.00
2022-07-29T22:20:07.789Z,83.40
2022-07-29T22:22:34.338Z,82.82
2022-07-29T22:25:00.927Z,83.76
2022-07-29T22:27:27.640Z,83.75
2022-07-29T22:29:57.473Z,83.81
2022-07-29T22:32:24.112Z,83.90
2022-07-29T22:34:50.703Z,84.25
2022-07-29T22:37:17.578Z,85.71
2022-07-29T22:39:44.360Z,85.12
2022-07-29T22:42:10.845Z,84.55
2022-07-29T22:44:37.360Z,84.66
2022-07-29T22:47:04.779Z,86.09
2022-07-29T22:49:31.391Z,85.56
2022-07-29T22:51:57.851Z,85.96
2022-07-29T22:54:24.348Z,86.35
2022-07-29T22:56:50.935Z,86.25
2022-07-29T22:59:17.506Z,86.51
2022-07-29T23:01:44.151Z,86.57
2022-07-29T23:04:10.713Z,85.96
2022-07-29T23:06:37.235Z,87.10
2022-07-29T23:09:04.418Z,86.89
2022-07-29T23:11:30.924Z,87.30
2022-07-29T23:13:57.471Z,87.12
2022-07-29T23:16:26.739Z,86.83
2022-07-29T23:18:54.402Z,86.93
2022-07-29T23:21:20.940Z,86.77
2022-07-29T23:23:48.515Z,86.04
2022-07-29T23:26:17.083Z,86.16
2022-07-29T23:28:44.739Z,86.50
2022-07-29T23:31:11.444Z,87.13
2022-07-29T23:33:37.975Z,87.73
2022-07-29T23:36:04.608Z,87.89
2022-07-29T23:38:31.166Z,87.80
2022-07-29T23:40:58.703Z,87.61
2022-07-29T23:43:25.221Z,88.43
2022-07-29T23:45:51.722Z,88.17
2022-07-29T23:48:20.928Z,87.89
2022-07-29T23:50:47.440Z,88.67
2022-07-29T23:53:13.957Z,88.69
2022-07-29T23:55:40.493Z,88.59
2022-07-29T23:58:07.038Z,88.27
